Aérodrome :
LOGIN :

S'inscrire | Disclaimer

   EN    FR    IT 

 










Légende :    VFR   VFR Marginal   IFR   IFR Intensif   IFR Très Intensif
Visi : 
Plafond : 
>= 8 km
>= 3000ft
5 à 8 km
1000 à 3000 ft
1500m à 5 km
500 à 1000 ft
800 à 1500m
200 à 500 ft
< 800m
< 200 ft
Symboles :   Orages  Brouillard  Fortes neiges  Fortes précipitations  Vent > 20 kt
SIGMETs :   Divers  Orages  Givrage  Turbulence  Onde Orograph.  Cendres Volcan.






- Altitude de l'aérodrome : 124 ft
- Code IATA : RNS


LFRN - Rennes

DERNIER METAR :
  • 072230Z AUTO 19009KT 9999 FEW010 SCT014 OVC023 10/09 Q1016 TEMPO 3000 BR BKN003

METARs EXPIRÉS :
  • 072200Z AUTO 20008KT 9999 FEW010 OVC023 10/09 Q1017 TEMPO 3000 BR BKN003
  • 072130Z AUTO 19007KT 9999 FEW010 OVC025 10/09 Q1017 TEMPO 3000 BR BKN003
  • 072100Z AUTO 18008KT 9999 FEW011 OVC024 10/09 Q1017 TEMPO 3000 BR BKN003
  • 072030Z AUTO 17007KT 9999 BKN020 OVC027 10/09 Q1017 TEMPO 3000 BR BKN003
  • 072000Z AUTO 18007KT 9999 OVC028 10/10 Q1018 TEMPO 3000 BR BKN003

TAF AMD TAF LFRN
Valide du 07 à 17h jusqu'au 08 à 18h UTC


071751Z 0717/0818 20005KT 9999 BKN030
TEMPO 0718/0803 BKN008
PROB30
TEMPO 0718/0808 3000 BR BKN003
BECMG 0801/0803 21015G25KT BKN012
TEMPO 0803/0808 3000 RA BKN005
BECMG 0806/0808 27010KT BKN030
BECMG 0812/0814 25015G25KT
TEMPO 0817/0818 26020G35KT 3000 SHRA BKN015TCU
ATIS : +33 2 99 67 72 50



MET'MAP, la Météo Aéronautique d'un coup d'oeil ! - Copyright ORBIFLY Décembre 2007 - Disclaimer

ORBIFLY MET'MAP TEAM :

Programmation & Développement : Alexandra Zaïnal
Sur une idée originale de : Baudouin d'Aumeries
Assistance à la programmation : Marc-Olivier Méhu
Soutien technique & logistique : Manuel Goepfert

Contact : metmap@orbifly.com




SOURCES & CREDITS :

   NOAA